MYNNMWCR

Guest
Details From MYNN - Nassau Intl
To MWCR - Owen Roberts Intl
Flight Number -
Tags generated
Created
Modified
Stats Distance 413 nm / 765 km
Max Altitude 34,000 ft / 10,363 m
Waypoints 5
Social Downloads 1
Likes 0
Share VATSIM

Download

Looking for another format? Having issues loading an existing format? Contact us
Advertisement - Login to hide

Notes

Basic altitude profile: - Ascent Rate: 2500ft/min - Ascent Speed: 250kts - Cruise Altitude: 35000ft - Cruise Speed: 420kts - Descent Rate: 1500ft/min - Descent Speed: 250kts Options: - Use NATs: yes - Use PACOTS: yes - Use low airways: no - Use high airways: yes

Route

MYNN IMELA UG437 UCA UB767 IBSEN MWCR

ID Type Via Altitude Latitude Longitude Leg Dist Tot Dist Heading (true) Name
O MYNN APT - 0 ft / 0 m 25.03860˚ -77.46662˚ - 0 nm - Nassau Intl
IMELA FIX - 34,000 ft / 10,363 m 23.42056˚ -78.18417˚ 104 nm 104 nm 202° / 202° -
UCA DME UG437 (AWY-HI) 34,000 ft / 10,363 m 22.01506˚ -78.81582˚ 91 nm 196 nm 203° / 202° CIEGO DE AVILA VOR-DME
IBSEN FIX UB767 (AWY-HI) 24,500 ft / 7,468 m 20.51556˚ -80.23806˚ 120 nm 316 nm 222° / 221° -
O MWCR APT - 0 ft / 0 m 19.29278˚ -81.35776˚ 96 nm 413 nm 221° / 221° Owen Roberts Intl

Altitude Profile

Advertisement - Login to hide

Weather


0- 5 10 15 20 25 30 35+ Temperature / ° C

Clouds and Precipitation
Forecast for 2017-12-16 12:00 UTC. Updated 2 hours ago

Ground ~20,000 ft ~40,000 ft Winds

MYNN

Details ICAO MYNN (NAS)
Name Nassau Intl
Region Bahamas
Timezone America/Nassau (UTC-5.0)
Stats Elevation 16 ft / 5 m (AMSL)
Location 25.038596° -77.466621°
Runways 2
Magnetic Variation 8.219° W

METAR

MYNN 160900Z 01003KT 9999 BKN030 24/19 A3014

Decode

TAF

TAF MYNN 160500Z 1606/1706 VRB02KT 9999 VCSH FEW020 BKN030 BECMG 1612/1614 05 010KT

Decode

Departure Runways

ID Width Length Bearing (true) Bearing (mag) Surface Threshold Offset Overrun Length
09 151 ft / 46 m 8,311 ft / 2,533 m 89.62° 97.84° Asphalt 0 ft / 0 m 0 ft / 0 m
14 151 ft / 46 m 11,364 ft / 3,464 m 134.83° 143.05° Asphalt 226 ft / 69 m 0 ft / 0 m
27 151 ft / 46 m 8,311 ft / 2,533 m 269.64° 277.86° Asphalt 0 ft / 0 m 0 ft / 0 m
32 151 ft / 46 m 11,364 ft / 3,464 m 314.84° 323.06° Asphalt 0 ft / 0 m 0 ft / 0 m

MWCR

Details ICAO MWCR (GCM)
Name Owen Roberts Intl
Region Cayman Islands
Timezone America/Cayman (UTC-5.0)
Stats Elevation 7 ft / 2 m (AMSL)
Location 19.292776° -81.357760°
Runways 1
Magnetic Variation 4.989° W

METAR

Not found

TAF

TAF MWCR 152300Z 1600/1624 12010KT 9999 SCT020 BECMG 1612/1614 07015KT

Decode

Destination Runways

ID Width Length Bearing (true) Bearing (mag) Surface Threshold Offset Overrun Length
08 148 ft / 45 m 7,016 ft / 2,139 m 75.84° 80.83° Asphalt 0 ft / 0 m 0 ft / 0 m
26 148 ft / 45 m 7,016 ft / 2,139 m 255.85° 260.84° Asphalt 400 ft / 122 m 0 ft / 0 m

Popular Alternatives